Voerendaal, Netherlands
Current Conditions -  °F | °C
As of 4:55 PM on Sunday 21 Dec 2014 (Local Time) from EHBK Reporting Station
Broken Clouds Broken Clouds  
Wind Chill: 37°   Ceiling: 1600
Heat Index: 45°   Visibility: 6mi
Dew Point: 43°   Wind: 17mph
Humidity: 93%   Direction: 230°SW
Pressure: 30.27"   Gusts: NA
Location:  50.88°N, 5.93°E
Report Text: EHBK 211555Z AUTO 23015KT 200V260 9999 FEW010/// SCT013///BKN016/// 07/06 Q1025 BECMG BKN012 TEMPO 7000 -DZ
Loading
Personal Weather Stations






























Interactive Weather Map New forecast layout! Learn more

10-Day Weather Forecast

Advertisements
Track Severe Weather on mobile